createdAt,value
2023-05-14T00:02:01.825Z,101023.31
2023-05-14T00:05:05.122Z,101021.97
2023-05-14T00:08:07.722Z,101027.50
2023-05-14T00:11:10.215Z,101003.41
2023-05-14T00:14:12.605Z,101018.06
2023-05-14T00:17:15.031Z,101017.91
2023-05-14T00:20:17.541Z,101025.19
2023-05-14T00:23:20.328Z,101021.63
2023-05-14T00:26:22.846Z,100992.31
2023-05-14T00:29:25.309Z,101006.88
2023-05-14T00:32:27.836Z,101002.13
2023-05-14T00:35:30.639Z,101005.13
2023-05-14T00:38:33.072Z,100989.44
2023-05-14T00:41:35.803Z,101007.34
2023-05-14T00:44:38.259Z,101000.09
2023-05-14T00:47:41.020Z,100997.06
2023-05-14T00:50:43.728Z,100991.28
2023-05-14T00:53:47.245Z,101002.81
2023-05-14T00:56:50.529Z,101010.66
2023-05-14T00:59:53.084Z,100994.19
2023-05-14T01:02:55.720Z,100999.34
2023-05-14T01:06:26.396Z,100986.31
2023-05-14T01:09:46.337Z,100985.03
2023-05-14T01:13:25.597Z,101000.31
2023-05-14T01:16:29.106Z,100987.19
2023-05-14T01:19:41.754Z,100990.13
2023-05-14T01:22:44.175Z,100974.34
2023-05-14T01:25:46.794Z,100984.97
2023-05-14T01:28:49.706Z,100985.09
2023-05-14T01:31:54.233Z,100981.50
2023-05-14T01:34:58.608Z,100991.50
2023-05-14T01:38:05.121Z,100998.28
2023-05-14T01:41:07.630Z,100977.69
2023-05-14T01:44:10.707Z,100977.81
2023-05-14T01:47:13.440Z,100983.59
2023-05-14T01:50:16.000Z,100994.03
2023-05-14T01:53:18.392Z,100992.69
2023-05-14T01:56:24.344Z,100953.31
2023-05-14T01:59:26.859Z,100959.50
2023-05-14T02:02:29.277Z,100971.44
2023-05-14T02:05:31.747Z,100987.53
2023-05-14T02:08:34.252Z,100972.25
2023-05-14T02:11:36.730Z,100958.66
2023-05-14T02:14:39.238Z,100976.16
2023-05-14T02:17:41.713Z,100961.66
2023-05-14T02:20:46.771Z,100959.69
2023-05-14T02:23:50.218Z,100959.00
2023-05-14T02:26:52.726Z,100955.03
2023-05-14T02:29:56.655Z,100957.47
2023-05-14T02:32:59.292Z,100955.63
2023-05-14T02:36:01.742Z,100961.59
2023-05-14T02:39:04.848Z,100931.69
2023-05-14T02:42:07.553Z,100963.97
2023-05-14T02:45:10.358Z,100937.66
2023-05-14T02:48:12.931Z,100931.38
2023-05-14T02:51:16.382Z,100930.00
2023-05-14T02:54:18.800Z,100939.38
2023-05-14T02:57:21.341Z,100939.38
2023-05-14T03:00:24.271Z,100930.97
2023-05-14T03:03:27.289Z,100936.16
2023-05-14T03:06:31.230Z,100945.19
2023-05-14T03:09:34.635Z,100943.91
2023-05-14T03:12:38.572Z,100946.94
2023-05-14T03:15:41.164Z,100938.63
2023-05-14T03:18:43.702Z,100927.66
2023-05-14T03:21:46.265Z,100924.31
2023-05-14T03:24:48.764Z,100918.03
2023-05-14T03:27:51.189Z,100939.47
2023-05-14T03:30:53.739Z,100921.50
2023-05-14T03:33:56.183Z,100899.75
2023-05-14T03:36:58.576Z,100923.03
2023-05-14T03:40:00.921Z,100928.91
2023-05-14T03:43:03.338Z,100918.53
2023-05-14T03:46:05.792Z,100939.41
2023-05-14T03:49:08.952Z,100922.31
2023-05-14T03:52:11.443Z,100930.16
2023-05-14T03:55:13.959Z,100936.28
2023-05-14T03:58:17.695Z,100929.91
2023-05-14T04:01:20.140Z,100918.13
2023-05-14T04:04:22.588Z,100932.44
2023-05-14T04:07:25.013Z,100932.75
2023-05-14T04:10:29.133Z,100935.00
2023-05-14T04:13:31.604Z,100938.56
2023-05-14T04:16:34.406Z,100928.06
2023-05-14T04:19:36.917Z,100945.78
2023-05-14T04:22:39.344Z,100930.41
2023-05-14T04:25:42.193Z,100941.88
2023-05-14T04:28:44.630Z,100945.53
2023-05-14T04:31:47.152Z,100926.94
2023-05-14T04:34:49.583Z,100937.47
2023-05-14T04:37:52.062Z,100926.28
2023-05-14T04:40:54.513Z,100925.06
2023-05-14T04:43:57.094Z,100928.78
2023-05-14T04:46:59.462Z,100930.00
2023-05-14T04:50:02.352Z,100929.66
2023-05-14T04:53:04.872Z,100916.44
2023-05-14T04:56:07.477Z,100933.50
2023-05-14T04:59:09.893Z,100933.47
2023-05-14T05:02:12.268Z,100922.50
2023-05-14T05:05:14.718Z,100933.41
2023-05-14T05:08:17.080Z,100934.63
2023-05-14T05:11:19.511Z,100924.63
2023-05-14T05:14:21.985Z,100925.31
2023-05-14T05:17:25.107Z,100908.53
2023-05-14T05:20:28.329Z,100910.00
2023-05-14T05:23:30.718Z,100903.25
2023-05-14T05:26:33.244Z,100916.94
2023-05-14T05:29:35.717Z,100904.63
2023-05-14T05:32:38.285Z,100911.84
2023-05-14T05:35:40.958Z,100886.09
2023-05-14T05:38:43.484Z,100888.00
2023-05-14T05:41:45.870Z,100883.56
2023-05-14T05:44:48.339Z,100899.22
2023-05-14T05:47:50.930Z,100880.97
2023-05-14T05:50:53.409Z,100879.00
2023-05-14T05:53:56.008Z,100877.97
2023-05-14T05:56:59.225Z,100888.75
2023-05-14T06:00:07.973Z,100895.31
2023-05-14T06:03:15.205Z,100879.91
2023-05-14T06:06:17.681Z,100880.00
2023-05-14T06:09:20.148Z,100885.00
2023-05-14T06:12:22.578Z,100860.94
2023-05-14T06:15:25.043Z,100877.31
2023-05-14T06:18:27.500Z,100865.16
2023-05-14T06:21:29.904Z,100869.81
2023-05-14T06:24:33.019Z,100877.97
2023-05-14T06:27:35.388Z,100857.13
2023-05-14T06:30:37.820Z,100881.53
2023-05-14T06:33:40.561Z,100871.94
2023-05-14T06:36:43.029Z,100871.09
2023-05-14T06:39:50.141Z,100851.34
2023-05-14T06:42:52.659Z,100855.44
2023-05-14T06:45:55.622Z,100854.25
2023-05-14T06:48:59.546Z,100846.84
2023-05-14T06:52:02.364Z,100854.84
2023-05-14T06:55:05.085Z,100863.16
2023-05-14T06:58:08.281Z,100850.06
2023-05-14T07:01:10.742Z,100849.53
2023-05-14T07:04:13.226Z,100856.75
2023-05-14T07:07:18.345Z,100859.97
2023-05-14T07:10:20.926Z,100861.25
2023-05-14T07:13:24.943Z,100825.78
2023-05-14T07:16:28.841Z,100843.66
2023-05-14T07:19:31.367Z,100834.19
2023-05-14T07:22:33.903Z,100840.97
2023-05-14T07:25:36.388Z,100850.72
2023-05-14T07:28:38.901Z,100837.69
2023-05-14T07:31:41.347Z,100837.69
2023-05-14T07:34:43.875Z,100847.38
2023-05-14T07:37:46.392Z,100835.84
2023-05-14T07:40:48.840Z,100852.97
2023-05-14T07:43:51.352Z,100835.81
2023-05-14T07:46:53.843Z,100849.84
2023-05-14T07:49:59.328Z,100845.72
2023-05-14T07:53:01.802Z,100830.66
2023-05-14T07:56:04.534Z,100841.84
2023-05-14T07:59:07.471Z,100825.19
2023-05-14T08:02:13.119Z,100835.56
2023-05-14T08:05:15.933Z,100824.22
2023-05-14T08:08:18.384Z,100800.75
2023-05-14T08:11:22.397Z,100787.88
2023-05-14T08:14:24.845Z,100820.47
2023-05-14T08:17:27.401Z,100791.19
2023-05-14T08:20:31.199Z,100798.94
2023-05-14T08:23:33.684Z,100786.16
2023-05-14T08:26:36.085Z,100801.13
2023-05-14T08:29:38.526Z,100796.72
2023-05-14T08:32:41.248Z,100789.56
2023-05-14T08:35:43.800Z,100795.91
2023-05-14T08:38:46.263Z,100783.91
2023-05-14T08:41:48.747Z,100795.44
2023-05-14T08:44:59.148Z,100786.97
2023-05-14T08:48:05.644Z,100792.59
2023-05-14T08:51:08.278Z,100762.88
2023-05-14T08:54:10.780Z,100783.94
2023-05-14T08:57:13.323Z,100773.91
2023-05-14T09:00:15.988Z,100772.84
2023-05-14T09:03:18.755Z,100769.16
2023-05-14T09:06:22.297Z,100742.59
2023-05-14T09:09:24.829Z,100772.22
2023-05-14T09:12:27.343Z,100729.41
2023-05-14T09:15:30.605Z,100749.47
2023-05-14T09:18:33.221Z,100753.22
2023-05-14T09:21:35.822Z,100752.38
2023-05-14T09:24:41.882Z,100743.50
2023-05-14T09:27:50.166Z,100745.03
2023-05-14T09:30:52.748Z,100735.25
2023-05-14T09:33:55.285Z,100730.03
2023-05-14T09:37:08.536Z,100731.19
2023-05-14T09:40:12.034Z,100713.19
2023-05-14T09:43:14.959Z,100715.91
2023-05-14T09:46:17.824Z,100687.56
2023-05-14T09:49:20.646Z,100689.16
2023-05-14T09:52:26.459Z,100678.91
2023-05-14T09:55:29.362Z,100682.03
2023-05-14T09:58:31.890Z,100669.69
2023-05-14T10:01:34.608Z,100667.50
2023-05-14T10:04:37.490Z,100655.91
2023-05-14T10:07:48.286Z,100673.34
2023-05-14T10:10:59.075Z,100676.41
2023-05-14T10:14:08.683Z,100671.47
2023-05-14T10:17:18.296Z,100659.53
2023-05-14T10:20:21.074Z,100648.34
2023-05-14T10:23:23.867Z,100648.75
2023-05-14T10:26:26.583Z,100639.50
2023-05-14T10:29:34.213Z,100641.06
2023-05-14T10:32:38.025Z,100652.59
2023-05-14T10:36:06.132Z,100646.44
2023-05-14T10:39:09.144Z,100618.75
2023-05-14T10:42:16.626Z,100626.41
2023-05-14T10:45:19.138Z,100616.41
2023-05-14T10:48:21.879Z,100597.97
2023-05-14T10:51:24.428Z,100591.78
2023-05-14T10:54:28.211Z,100594.81
2023-05-14T10:57:31.697Z,100595.88
2023-05-14T11:00:34.433Z,100601.28
2023-05-14T11:03:43.020Z,100573.56
2023-05-14T11:06:47.442Z,100575.41
2023-05-14T11:09:51.023Z,100573.91
2023-05-14T11:12:53.400Z,100562.69
2023-05-14T11:15:56.108Z,100556.50
2023-05-14T11:19:03.509Z,100553.44
2023-05-14T11:22:06.645Z,100553.44
2023-05-14T11:25:10.165Z,100526.56
2023-05-14T11:28:12.565Z,100551.19
2023-05-14T11:31:15.238Z,100554.88
2023-05-14T11:34:17.681Z,100552.19
2023-05-14T11:37:20.370Z,100542.56
2023-05-14T11:40:22.968Z,100517.66
2023-05-14T11:43:29.465Z,100541.03
2023-05-14T11:46:32.087Z,100527.28
2023-05-14T11:49:37.479Z,100532.03
2023-05-14T11:52:41.372Z,100527.16
2023-05-14T11:55:43.899Z,100527.97
2023-05-14T11:58:49.420Z,100531.56
2023-05-14T12:01:54.848Z,100545.38
2023-05-14T12:04:57.564Z,100535.38
2023-05-14T12:07:59.929Z,100504.41
2023-05-14T12:11:02.377Z,100525.16
2023-05-14T12:14:30.858Z,100523.22
2023-05-14T12:17:33.410Z,100505.53
2023-05-14T12:20:36.140Z,100514.38
2023-05-14T12:23:38.937Z,100512.38
2023-05-14T12:26:46.609Z,100508.56
2023-05-14T12:29:48.980Z,100504.31
2023-05-14T12:32:53.057Z,100510.84
2023-05-14T12:36:09.921Z,100515.13
2023-05-14T12:39:22.586Z,100508.25
2023-05-14T12:42:25.023Z,100503.22
2023-05-14T12:45:27.450Z,100490.56
2023-05-14T12:48:29.986Z,100505.16
2023-05-14T12:51:32.495Z,100498.25
2023-05-14T12:54:34.871Z,100498.66
2023-05-14T12:57:39.320Z,100492.50
2023-05-14T13:00:42.251Z,100474.09
2023-05-14T13:03:44.750Z,100476.78
2023-05-14T13:06:47.548Z,100469.88
2023-05-14T13:09:49.986Z,100467.94
2023-05-14T13:12:52.782Z,100474.47
2023-05-14T13:15:55.657Z,100459.84
2023-05-14T13:18:58.332Z,100472.44
2023-05-14T13:22:00.847Z,100463.56
2023-05-14T13:25:03.459Z,100471.69
2023-05-14T13:28:05.981Z,100455.59
2023-05-14T13:31:12.618Z,100438.66
2023-05-14T13:34:15.118Z,100444.78
2023-05-14T13:37:17.614Z,100430.63
2023-05-14T13:40:20.085Z,100448.25
2023-05-14T13:43:22.463Z,100425.59
2023-05-14T13:46:25.005Z,100439.03
2023-05-14T13:49:27.476Z,100427.50
2023-05-14T13:52:30.040Z,100442.13
2023-05-14T13:55:32.473Z,100428.69
2023-05-14T13:58:35.023Z,100431.41
2023-05-14T14:01:37.524Z,100440.59
2023-05-14T14:04:40.014Z,100426.41
2023-05-14T14:07:42.747Z,100403.00
2023-05-14T14:10:45.343Z,100418.38
2023-05-14T14:13:47.917Z,100417.59
2023-05-14T14:16:50.961Z,100423.00
2023-05-14T14:19:53.511Z,100413.38
2023-05-14T14:22:56.201Z,100419.47
2023-05-14T14:25:58.679Z,100419.81
2023-05-14T14:29:01.110Z,100423.22
2023-05-14T14:32:04.271Z,100421.69
2023-05-14T14:35:07.140Z,100402.88
2023-05-14T14:38:09.679Z,100410.97
2023-05-14T14:41:12.319Z,100422.06
2023-05-14T14:44:14.767Z,100421.28
2023-05-14T14:47:17.296Z,100415.50
2023-05-14T14:50:19.825Z,100410.31
2023-05-14T14:53:22.432Z,100400.53
2023-05-14T14:56:26.982Z,100393.50
2023-05-14T14:59:29.477Z,100429.22
2023-05-14T15:02:32.042Z,100412.59
2023-05-14T15:05:34.703Z,100414.81
2023-05-14T15:08:37.350Z,100404.63
2023-05-14T15:11:39.933Z,100429.94
2023-05-14T15:14:42.392Z,100423.75
2023-05-14T15:17:44.932Z,100437.81
2023-05-14T15:20:47.390Z,100432.44
2023-05-14T15:23:49.851Z,100415.50
2023-05-14T15:26:53.388Z,100427.63
2023-05-14T15:29:56.262Z,100418.56
2023-05-14T15:32:58.744Z,100414.00
2023-05-14T15:36:01.182Z,100417.44
2023-05-14T15:39:03.652Z,100421.31
2023-05-14T15:42:06.580Z,100412.88
2023-05-14T15:45:10.435Z,100401.81
2023-05-14T15:48:12.872Z,100399.47
2023-05-14T15:51:15.431Z,100389.94
2023-05-14T15:54:18.011Z,100403.47
2023-05-14T15:57:20.451Z,100378.84
2023-05-14T16:00:24.868Z,100372.44
2023-05-14T16:03:27.666Z,100380.16
2023-05-14T16:06:30.206Z,100368.59
2023-05-14T16:09:33.735Z,100383.44
2023-05-14T16:12:36.203Z,100379.28
2023-05-14T16:15:39.887Z,100374.22
2023-05-14T16:18:43.270Z,100381.44
2023-05-14T16:21:45.733Z,100373.81
2023-05-14T16:24:48.219Z,100372.31
2023-05-14T16:27:50.787Z,100372.00
2023-05-14T16:30:53.266Z,100369.34
2023-05-14T16:33:55.833Z,100376.84
2023-05-14T16:36:59.496Z,100376.59
2023-05-14T16:40:02.129Z,100376.03
2023-05-14T16:43:04.656Z,100361.34
2023-05-14T16:46:07.128Z,100368.59
2023-05-14T16:49:09.616Z,100338.31
2023-05-14T16:52:12.067Z,100346.59
2023-05-14T16:55:14.562Z,100339.72
2023-05-14T16:58:17.035Z,100350.25
2023-05-14T17:01:19.570Z,100344.91
2023-05-14T17:04:22.789Z,100355.16
2023-05-14T17:07:25.224Z,100324.09
2023-05-14T17:10:27.742Z,100343.66
2023-05-14T17:13:30.555Z,100338.94
2023-05-14T17:16:33.049Z,100322.91
2023-05-14T17:19:35.552Z,100317.81
2023-05-14T17:22:38.096Z,100318.44
2023-05-14T17:25:40.681Z,100309.75
2023-05-14T17:28:45.489Z,100306.09
2023-05-14T17:31:48.733Z,100292.84
2023-05-14T17:34:51.376Z,100309.19
2023-05-14T17:37:53.959Z,100301.53
2023-05-14T17:40:56.480Z,100286.53
2023-05-14T17:43:59.467Z,100307.44
2023-05-14T17:47:03.182Z,100306.53
2023-05-14T17:50:06.148Z,100301.13
2023-05-14T17:53:08.759Z,100307.38
2023-05-14T17:56:11.396Z,100277.97
2023-05-14T17:59:13.861Z,100283.31
2023-05-14T18:02:16.304Z,100306.66
2023-05-14T18:05:20.934Z,100285.97
2023-05-14T18:08:23.518Z,100290.50
2023-05-14T18:11:26.524Z,100312.41
2023-05-14T18:14:28.972Z,100312.97
2023-05-14T18:17:31.457Z,100301.03
2023-05-14T18:20:35.537Z,100311.38
2023-05-14T18:23:38.206Z,100304.06
2023-05-14T18:26:40.890Z,100322.59
2023-05-14T18:29:43.926Z,100317.50
2023-05-14T18:32:46.753Z,100325.50
2023-05-14T18:35:49.268Z,100313.19
2023-05-14T18:38:51.741Z,100304.50
2023-05-14T18:41:55.122Z,100310.22
2023-05-14T18:44:57.505Z,100315.22
2023-05-14T18:48:00.164Z,100313.50
2023-05-14T18:51:02.896Z,100301.03
2023-05-14T18:54:05.399Z,100279.13
2023-05-14T18:57:08.123Z,100301.56
2023-05-14T19:00:11.171Z,100293.63
2023-05-14T19:03:13.898Z,100274.81
2023-05-14T19:06:17.861Z,100291.19
2023-05-14T19:09:21.334Z,100295.53
2023-05-14T19:12:24.047Z,100283.00
2023-05-14T19:15:26.826Z,100296.56
2023-05-14T19:18:29.787Z,100283.19
2023-05-14T19:21:32.389Z,100288.91
2023-05-14T19:24:35.138Z,100268.06
2023-05-14T19:27:38.476Z,100267.72
2023-05-14T19:30:41.376Z,100271.75
2023-05-14T19:33:43.989Z,100267.72
2023-05-14T19:36:46.638Z,100247.03
2023-05-14T19:39:49.145Z,100247.19
2023-05-14T19:42:51.646Z,100249.41
2023-05-14T19:45:54.385Z,100232.53
2023-05-14T19:48:56.999Z,100234.13
2023-05-14T19:51:59.437Z,100249.59
2023-05-14T19:55:01.920Z,100245.72
2023-05-14T19:58:07.766Z,100230.34
2023-05-14T20:01:10.258Z,100220.03
2023-05-14T20:04:14.124Z,100235.78
2023-05-14T20:07:17.205Z,100222.03
2023-05-14T20:10:20.627Z,100221.97
2023-05-14T20:13:25.056Z,100213.44
2023-05-14T20:16:28.660Z,100204.75
2023-05-14T20:19:31.260Z,100215.00
2023-05-14T20:22:33.701Z,100213.28
2023-05-14T20:25:36.149Z,100198.25
2023-05-14T20:28:38.614Z,69945.13
2023-05-14T20:31:41.181Z,69945.13
2023-05-14T20:34:43.880Z,69945.13
2023-05-14T20:37:47.287Z,69945.13
2023-05-14T20:40:49.809Z,69945.13
2023-05-14T20:43:52.294Z,69945.13
2023-05-14T20:46:54.805Z,69945.13
2023-05-14T20:49:57.220Z,69945.13
2023-05-14T20:52:59.790Z,69945.13
2023-05-14T20:56:02.357Z,69945.13
2023-05-14T20:59:04.762Z,69945.13
2023-05-14T21:02:07.522Z,69945.13
2023-05-14T21:05:10.092Z,69945.13
2023-05-14T21:08:12.669Z,69945.13
2023-05-14T21:11:15.212Z,69945.13
2023-05-14T21:14:17.666Z,69945.13
2023-05-14T21:17:20.304Z,69945.13
2023-05-14T21:20:23.074Z,69945.13
2023-05-14T21:23:25.527Z,69945.13
2023-05-14T21:26:30.706Z,69945.13
2023-05-14T21:29:33.157Z,69945.13
2023-05-14T21:32:35.641Z,69945.13
2023-05-14T21:35:38.202Z,69945.13
2023-05-14T21:38:41.008Z,69945.13
2023-05-14T21:41:43.496Z,69945.13
2023-05-14T21:44:45.919Z,69945.13
2023-05-14T21:47:48.448Z,69945.13
2023-05-14T21:50:50.900Z,69945.13
2023-05-14T21:53:53.317Z,69945.13
2023-05-14T21:56:55.822Z,69945.13
2023-05-14T21:59:58.303Z,69945.13
2023-05-14T22:03:00.763Z,69945.13
2023-05-14T22:06:03.490Z,69945.13
2023-05-14T22:09:05.907Z,69945.13
2023-05-14T22:12:08.476Z,69945.13
2023-05-14T22:15:11.621Z,69945.13
2023-05-14T22:18:15.416Z,69945.13
2023-05-14T22:21:17.876Z,69945.13
2023-05-14T22:24:20.342Z,69945.13
2023-05-14T22:27:23.031Z,69945.13
2023-05-14T22:30:25.552Z,69945.13
2023-05-14T22:33:27.967Z,69945.13
2023-05-14T22:36:30.496Z,69945.13
2023-05-14T22:39:32.929Z,69945.13
2023-05-14T22:42:35.506Z,69945.13
2023-05-14T22:45:37.990Z,69945.13
2023-05-14T22:48:40.514Z,69945.13
2023-05-14T22:51:42.905Z,69945.13
2023-05-14T22:54:46.654Z,69945.13
2023-05-14T22:57:49.124Z,69945.13
2023-05-14T23:00:51.518Z,69945.13
2023-05-14T23:03:53.933Z,69945.13
2023-05-14T23:06:56.348Z,69945.13
2023-05-14T23:09:58.742Z,69945.13
2023-05-14T23:13:01.367Z,69945.13
2023-05-14T23:16:04.177Z,69945.13
2023-05-14T23:19:06.893Z,69945.13
2023-05-14T23:22:09.464Z,69945.13
2023-05-14T23:25:11.873Z,69945.13
2023-05-14T23:28:14.593Z,69945.13
2023-05-14T23:31:17.022Z,69945.13
2023-05-14T23:34:19.594Z,69945.13
2023-05-14T23:37:22.083Z,69945.13
2023-05-14T23:40:24.541Z,69945.13
2023-05-14T23:43:27.034Z,69945.13
2023-05-14T23:46:29.657Z,69945.13
2023-05-14T23:49:32.256Z,69945.13
2023-05-14T23:52:34.760Z,69945.13
2023-05-14T23:55:37.149Z,69945.13
2023-05-14T23:58:39.615Z,69945.13
